createdAt,value
2022-11-26T00:00:53.783Z,41.88
2022-11-26T00:03:31.974Z,39.13
2022-11-26T00:05:59.235Z,38.72
2022-11-26T00:08:33.355Z,41.53
2022-11-26T00:11:01.934Z,38.85
2022-11-26T00:13:31.322Z,39.28
2022-11-26T00:15:58.517Z,39.35
2022-11-26T00:18:26.727Z,42.80
2022-11-26T00:20:56.903Z,40.78
2022-11-26T00:23:26.509Z,40.67
2022-11-26T00:26:01.110Z,40.25
2022-11-26T00:28:30.373Z,38.30
2022-11-26T00:31:00.673Z,44.53
2022-11-26T00:33:29.146Z,39.33
2022-11-26T00:36:01.864Z,41.90
2022-11-26T00:38:30.823Z,40.63
2022-11-26T00:40:58.677Z,42.80
2022-11-26T00:43:25.468Z,39.60
2022-11-26T00:45:52.814Z,40.13
2022-11-26T00:48:19.794Z,40.03
2022-11-26T00:50:49.728Z,42.15
2022-11-26T00:53:21.744Z,39.08
2022-11-26T00:55:50.253Z,42.10
2022-11-26T00:58:30.317Z,44.05
2022-11-26T01:00:59.907Z,42.58
2022-11-26T01:03:27.103Z,43.03
2022-11-26T01:05:57.271Z,43.40
2022-11-26T01:08:34.156Z,44.08
2022-11-26T01:11:03.748Z,45.25
2022-11-26T01:13:30.942Z,42.75
2022-11-26T01:15:59.956Z,46.55
2022-11-26T01:18:27.892Z,46.42
2022-11-26T01:20:54.953Z,48.20
2022-11-26T01:23:21.796Z,45.38
2022-11-26T01:25:49.016Z,41.03
2022-11-26T01:28:18.812Z,42.08
2022-11-26T01:30:46.786Z,46.92
2022-11-26T01:33:13.674Z,45.10
2022-11-26T01:35:40.909Z,45.42
2022-11-26T01:38:13.205Z,41.50
2022-11-26T01:41:03.544Z,42.80
2022-11-26T01:43:39.925Z,40.10
2022-11-26T01:46:19.327Z,39.15
2022-11-26T01:48:48.665Z,39.40
2022-11-26T01:51:36.326Z,40.80
2022-11-26T01:54:03.459Z,38.78
2022-11-26T01:56:45.625Z,40.72
2022-11-26T01:59:22.005Z,39.20
2022-11-26T02:01:51.414Z,38.67
2022-11-26T02:04:29.255Z,39.60
2022-11-26T02:06:56.883Z,38.00
2022-11-26T02:09:25.562Z,40.97
2022-11-26T02:11:52.951Z,39.67
2022-11-26T02:14:29.772Z,43.17
2022-11-26T02:17:04.468Z,39.22
2022-11-26T02:19:46.416Z,41.17
2022-11-26T02:22:35.602Z,40.42
2022-11-26T02:25:19.183Z,41.72
2022-11-26T02:28:04.578Z,39.97
2022-11-26T02:30:36.809Z,41.05
2022-11-26T02:33:11.348Z,39.13
2022-11-26T02:35:47.410Z,39.08
2022-11-26T02:38:22.675Z,36.83
2022-11-26T02:40:50.399Z,36.35
2022-11-26T02:43:18.679Z,36.97
2022-11-26T02:45:52.443Z,36.58
2022-11-26T02:48:27.754Z,34.30
2022-11-26T02:51:00.253Z,36.55
2022-11-26T02:53:31.765Z,37.42
2022-11-26T02:56:06.430Z,35.72
2022-11-26T02:58:34.667Z,33.60
2022-11-26T03:01:07.229Z,35.67
2022-11-26T03:03:40.475Z,34.63
2022-11-26T03:06:13.273Z,37.05
2022-11-26T03:08:43.062Z,37.05
2022-11-26T03:11:09.868Z,41.00
2022-11-26T03:13:37.016Z,39.30
2022-11-26T03:16:04.603Z,38.08
2022-11-26T03:18:31.957Z,40.25
2022-11-26T03:20:58.730Z,39.53
2022-11-26T03:23:25.911Z,38.60
2022-11-26T03:25:52.754Z,38.22
2022-11-26T03:28:20.051Z,38.95
2022-11-26T03:30:49.979Z,36.80
2022-11-26T03:33:17.694Z,39.50
2022-11-26T03:35:45.342Z,39.33
2022-11-26T03:38:12.521Z,39.97
2022-11-26T03:40:39.554Z,39.67
2022-11-26T03:43:06.671Z,40.28
2022-11-26T03:45:33.564Z,38.85
2022-11-26T03:48:01.062Z,39.75
2022-11-26T03:50:27.913Z,41.75
2022-11-26T03:52:55.057Z,40.03
2022-11-26T03:55:21.896Z,37.58
2022-11-26T03:57:48.983Z,36.88
2022-11-26T04:00:16.212Z,35.78
2022-11-26T04:02:43.391Z,36.72
2022-11-26T04:05:10.482Z,36.45
2022-11-26T04:07:37.722Z,36.55
2022-11-26T04:10:05.526Z,35.88
2022-11-26T04:12:32.927Z,34.75
2022-11-26T04:14:59.732Z,36.47
2022-11-26T04:17:27.274Z,34.85
2022-11-26T04:19:54.255Z,35.20
2022-11-26T04:22:21.393Z,33.22
2022-11-26T04:24:48.267Z,33.00
2022-11-26T04:27:15.394Z,33.33
2022-11-26T04:29:42.192Z,31.98
2022-11-26T04:32:09.417Z,32.33
2022-11-26T04:34:36.522Z,28.80
2022-11-26T04:37:03.876Z,32.00
2022-11-26T04:39:31.568Z,30.42
2022-11-26T04:41:59.696Z,31.23
2022-11-26T04:44:26.860Z,29.90
2022-11-26T04:46:54.058Z,29.30
2022-11-26T04:49:20.902Z,28.90
2022-11-26T04:51:48.118Z,28.95
2022-11-26T04:54:14.969Z,29.73
2022-11-26T04:56:42.102Z,28.45
2022-11-26T04:59:08.999Z,28.85
2022-11-26T05:01:36.172Z,27.13
2022-11-26T05:04:03.351Z,26.15
2022-11-26T05:06:30.834Z,22.88
2022-11-26T05:08:57.757Z,25.08
2022-11-26T05:11:25.101Z,24.13
2022-11-26T05:13:52.012Z,22.00
2022-11-26T05:16:19.196Z,24.70
2022-11-26T05:18:46.261Z,24.08
2022-11-26T05:21:13.797Z,23.27
2022-11-26T05:23:40.947Z,24.95
2022-11-26T05:26:08.075Z,23.65
2022-11-26T05:28:34.967Z,25.58
2022-11-26T05:31:03.746Z,24.63
2022-11-26T05:33:31.458Z,24.95
2022-11-26T05:35:59.009Z,26.85
2022-11-26T05:38:27.333Z,26.67
2022-11-26T05:40:54.896Z,25.67
2022-11-26T05:43:21.990Z,25.75
2022-11-26T05:45:49.152Z,27.13
2022-11-26T05:48:16.274Z,24.92
2022-11-26T05:50:43.539Z,26.17
2022-11-26T05:53:10.487Z,27.55
2022-11-26T05:55:38.189Z,24.45
2022-11-26T05:58:05.362Z,25.83
2022-11-26T06:00:32.707Z,24.95
2022-11-26T06:02:59.780Z,22.67
2022-11-26T06:05:27.074Z,23.88
2022-11-26T06:07:54.189Z,21.60
2022-11-26T06:10:21.330Z,22.70
2022-11-26T06:12:48.385Z,24.42
2022-11-26T06:15:15.725Z,23.67
2022-11-26T06:17:42.656Z,22.10
2022-11-26T06:20:10.631Z,21.30
2022-11-26T06:22:41.980Z,20.30
2022-11-26T06:27:38.421Z,20.98
2022-11-26T06:30:07.433Z,21.77
2022-11-26T06:32:34.735Z,23.35
2022-11-26T06:35:01.889Z,26.40
2022-11-26T06:37:28.723Z,26.08
2022-11-26T06:39:56.182Z,27.33
2022-11-26T06:42:23.224Z,28.45
2022-11-26T06:44:50.527Z,25.83
2022-11-26T06:47:17.811Z,26.70
2022-11-26T06:49:45.069Z,22.02
2022-11-26T06:52:13.659Z,24.42
2022-11-26T06:54:41.159Z,24.38
2022-11-26T06:57:08.425Z,23.70
2022-11-26T06:59:35.580Z,24.95
2022-11-26T07:02:02.650Z,23.92
2022-11-26T07:04:30.138Z,23.23
2022-11-26T07:06:57.025Z,24.20
2022-11-26T07:09:24.204Z,26.20
2022-11-26T07:11:51.264Z,26.30
2022-11-26T07:14:18.488Z,22.88
2022-11-26T07:16:45.374Z,22.30
2022-11-26T07:19:14.516Z,23.08
2022-11-26T07:21:41.657Z,23.05
2022-11-26T07:24:08.759Z,22.58
2022-11-26T07:26:36.075Z,24.10
2022-11-26T07:29:03.561Z,22.95
2022-11-26T07:31:30.802Z,21.95
2022-11-26T07:33:57.858Z,21.75
2022-11-26T07:36:30.309Z,19.08
2022-11-26T07:38:59.020Z,19.85
2022-11-26T07:41:27.805Z,21.67
2022-11-26T07:43:55.336Z,21.58
2022-11-26T07:46:26.371Z,23.20
2022-11-26T07:48:55.282Z,23.40
2022-11-26T07:51:28.968Z,22.00
2022-11-26T07:53:57.822Z,20.92
2022-11-26T07:56:25.894Z,22.25
2022-11-26T07:58:54.135Z,20.65
2022-11-26T08:01:24.737Z,23.27
2022-11-26T08:03:52.165Z,24.63
2022-11-26T08:06:21.815Z,23.85
2022-11-26T08:08:49.061Z,22.08
2022-11-26T08:11:19.465Z,22.95
2022-11-26T08:13:47.568Z,23.02
2022-11-26T08:16:15.394Z,19.63
2022-11-26T08:18:42.998Z,21.73
2022-11-26T08:21:10.643Z,23.95
2022-11-26T08:23:38.296Z,21.35
2022-11-26T08:29:00.416Z,20.65
2022-11-26T08:31:28.445Z,20.88
2022-11-26T08:34:02.837Z,22.73
2022-11-26T08:36:31.274Z,20.13
2022-11-26T08:38:59.898Z,23.23
2022-11-26T08:41:27.443Z,21.02
2022-11-26T08:44:09.608Z,21.13
2022-11-26T08:46:38.799Z,21.58
2022-11-26T08:49:07.348Z,21.98
2022-11-26T08:51:34.920Z,23.45
2022-11-26T08:54:02.414Z,21.20
2022-11-26T08:56:29.765Z,20.67
2022-11-26T08:58:56.647Z,22.58
2022-11-26T09:01:27.032Z,21.35
2022-11-26T09:03:57.140Z,19.75
2022-11-26T09:06:26.510Z,19.42
2022-11-26T09:09:12.279Z,21.58
2022-11-26T09:12:07.423Z,20.60
2022-11-26T09:14:41.518Z,18.58
2022-11-26T09:17:11.982Z,19.00
2022-11-26T09:19:39.396Z,19.92
2022-11-26T09:22:06.564Z,19.45
2022-11-26T09:24:33.793Z,21.67
2022-11-26T09:27:07.326Z,19.35
2022-11-26T09:29:34.884Z,19.90
2022-11-26T09:32:22.847Z,21.45
2022-11-26T09:34:48.937Z,19.88
2022-11-26T09:37:16.190Z,20.10
2022-11-26T09:39:43.197Z,19.95
2022-11-26T09:42:37.938Z,22.88
2022-11-26T09:45:05.000Z,23.50
2022-11-26T09:47:40.663Z,20.73
2022-11-26T09:50:21.015Z,21.85
2022-11-26T09:53:20.094Z,20.27
2022-11-26T09:55:52.443Z,19.05
2022-11-26T09:58:30.641Z,17.60
2022-11-26T10:01:00.740Z,19.17
2022-11-26T10:03:36.723Z,19.52
2022-11-26T10:06:39.950Z,18.85
2022-11-26T10:09:07.208Z,18.48
2022-11-26T10:11:40.217Z,18.63
2022-11-26T10:14:20.181Z,18.80
2022-11-26T10:17:28.217Z,18.27
2022-11-26T10:20:10.415Z,17.58
2022-11-26T10:22:57.333Z,16.67
2022-11-26T10:25:31.491Z,17.20
2022-11-26T10:28:00.054Z,18.52
2022-11-26T10:30:30.180Z,18.13
2022-11-26T10:33:02.460Z,19.00
2022-11-26T10:35:30.635Z,19.40
2022-11-26T10:37:58.330Z,18.38
2022-11-26T10:40:30.965Z,18.27
2022-11-26T10:43:03.937Z,20.50
2022-11-26T10:45:37.621Z,19.75
2022-11-26T10:48:25.704Z,17.85
2022-11-26T10:50:59.589Z,16.45
2022-11-26T10:53:29.407Z,17.25
2022-11-26T10:56:03.797Z,20.60
2022-11-26T10:58:39.857Z,17.15
2022-11-26T11:01:08.022Z,15.82
2022-11-26T11:06:41.585Z,17.55
2022-11-26T11:09:28.617Z,16.83
2022-11-26T11:12:17.944Z,19.27
2022-11-26T11:14:46.789Z,17.65
2022-11-26T11:17:30.972Z,18.80
2022-11-26T11:20:03.245Z,21.10
2022-11-26T11:22:31.035Z,18.50
2022-11-26T11:24:59.846Z,21.58
2022-11-26T11:27:41.258Z,20.90
2022-11-26T11:30:33.081Z,19.80
2022-11-26T11:33:19.129Z,17.50
2022-11-26T11:36:14.074Z,17.77
2022-11-26T11:38:52.038Z,17.63
2022-11-26T11:41:33.864Z,16.67
2022-11-26T11:44:06.524Z,16.48
2022-11-26T11:46:39.774Z,18.55
2022-11-26T11:50:04.642Z,18.08
2022-11-26T11:52:46.599Z,16.65
2022-11-26T11:55:21.440Z,19.38
2022-11-26T11:58:14.400Z,19.10
2022-11-26T12:00:57.112Z,17.40
2022-11-26T12:03:50.354Z,18.67
2022-11-26T12:06:21.487Z,18.95
2022-11-26T12:08:48.689Z,18.40
2022-11-26T12:11:27.869Z,18.30
2022-11-26T12:14:01.050Z,19.95
2022-11-26T12:16:34.362Z,20.33
2022-11-26T12:19:07.974Z,19.85
2022-11-26T12:21:40.940Z,20.80
2022-11-26T12:24:38.059Z,19.63
2022-11-26T12:27:22.501Z,19.40
2022-11-26T12:30:05.234Z,19.95
2022-11-26T12:32:39.920Z,17.80
2022-11-26T12:35:14.932Z,19.45
2022-11-26T12:37:42.966Z,18.02
2022-11-26T12:40:23.064Z,18.38
2022-11-26T12:42:59.384Z,18.10
2022-11-26T12:45:26.733Z,18.25
2022-11-26T12:48:00.800Z,22.80
2022-11-26T12:50:42.170Z,18.58
2022-11-26T12:53:39.998Z,18.88
2022-11-26T12:56:19.336Z,19.77
2022-11-26T12:59:06.375Z,21.55
2022-11-26T13:01:33.624Z,20.92
2022-11-26T13:04:29.359Z,20.33
2022-11-26T13:07:18.335Z,19.48
2022-11-26T13:10:10.196Z,20.85
2022-11-26T13:12:52.545Z,20.10
2022-11-26T13:15:28.032Z,18.58
2022-11-26T13:17:59.526Z,18.25
2022-11-26T13:20:43.395Z,17.67
2022-11-26T13:23:28.809Z,18.80
2022-11-26T13:26:40.764Z,17.85
2022-11-26T13:29:35.694Z,16.33
2022-11-26T13:32:27.589Z,16.17
2022-11-26T13:35:21.587Z,17.48
2022-11-26T13:38:17.008Z,17.85
2022-11-26T13:40:57.384Z,18.10
2022-11-26T13:43:34.724Z,17.58
2022-11-26T13:46:22.293Z,18.52
2022-11-26T13:48:55.597Z,17.85
2022-11-26T13:51:40.209Z,18.00
2022-11-26T13:54:10.255Z,17.50
2022-11-26T13:56:38.559Z,16.60
2022-11-26T13:59:15.840Z,16.42
2022-11-26T14:01:43.423Z,17.02
2022-11-26T14:04:13.479Z,17.60
2022-11-26T14:07:05.333Z,19.48
2022-11-26T14:09:47.682Z,17.35
2022-11-26T14:12:16.126Z,17.38
2022-11-26T14:14:47.790Z,17.45
2022-11-26T14:17:17.825Z,18.15
2022-11-26T14:19:44.970Z,18.15
2022-11-26T14:22:11.788Z,18.23
2022-11-26T14:24:51.107Z,18.08
2022-11-26T14:27:25.429Z,19.08
2022-11-26T14:30:13.456Z,18.30
2022-11-26T14:33:10.301Z,18.38
2022-11-26T14:35:39.498Z,20.13
2022-11-26T14:38:22.566Z,18.55
2022-11-26T14:40:57.693Z,18.20
2022-11-26T14:43:25.364Z,20.80
2022-11-26T14:46:13.974Z,20.15
2022-11-26T14:48:44.621Z,19.63
2022-11-26T14:51:19.433Z,19.33
2022-11-26T14:53:50.043Z,18.58
2022-11-26T14:56:19.624Z,20.10
2022-11-26T14:58:51.781Z,18.55
2022-11-26T15:01:25.453Z,20.30
2022-11-26T15:03:56.820Z,20.17
2022-11-26T15:06:27.598Z,18.00
2022-11-26T15:09:07.618Z,19.38
2022-11-26T15:11:37.940Z,17.27
2022-11-26T15:14:05.469Z,16.17
2022-11-26T15:16:38.449Z,19.48
2022-11-26T15:19:07.111Z,17.27
2022-11-26T15:21:35.082Z,18.45
2022-11-26T15:24:08.033Z,19.92
2022-11-26T15:26:36.741Z,20.17
2022-11-26T15:29:28.652Z,18.92
2022-11-26T15:31:55.940Z,18.83
2022-11-26T15:34:24.860Z,18.63
2022-11-26T15:36:52.323Z,17.90
2022-11-26T15:39:31.194Z,17.42
2022-11-26T15:42:04.589Z,17.95
2022-11-26T15:44:37.638Z,18.40
2022-11-26T15:47:19.127Z,19.58
2022-11-26T15:49:50.068Z,20.10
2022-11-26T15:52:24.002Z,18.85
2022-11-26T15:55:16.822Z,18.80
2022-11-26T15:57:48.778Z,20.20
2022-11-26T16:00:28.080Z,18.30
2022-11-26T16:02:55.636Z,18.98
2022-11-26T16:05:36.129Z,20.35
2022-11-26T16:08:24.635Z,18.33
2022-11-26T16:11:06.273Z,20.05
2022-11-26T16:13:34.974Z,17.60
2022-11-26T16:16:26.339Z,19.33
2022-11-26T16:21:34.400Z,16.20
2022-11-26T16:24:06.068Z,17.00
2022-11-26T16:26:55.016Z,17.83
2022-11-26T16:29:22.301Z,17.52
2022-11-26T16:31:49.312Z,19.67
2022-11-26T16:34:16.564Z,15.75
2022-11-26T16:36:44.052Z,18.05
2022-11-26T16:39:12.739Z,17.80
2022-11-26T16:41:40.048Z,18.45
2022-11-26T16:44:07.625Z,17.38
2022-11-26T16:46:37.314Z,18.42
2022-11-26T16:49:05.099Z,18.25
2022-11-26T16:51:32.246Z,17.17
2022-11-26T16:53:59.763Z,17.70
2022-11-26T16:56:39.861Z,17.73
2022-11-26T16:59:18.455Z,16.20
2022-11-26T17:01:45.473Z,16.85
2022-11-26T17:04:14.010Z,15.35
2022-11-26T17:06:41.806Z,16.90
2022-11-26T17:09:21.097Z,15.32
2022-11-26T17:11:48.354Z,15.65
2022-11-26T17:14:15.517Z,15.57
2022-11-26T17:16:42.599Z,17.15
2022-11-26T17:19:15.167Z,18.98
2022-11-26T17:21:42.802Z,17.65
2022-11-26T17:24:10.010Z,17.33
2022-11-26T17:26:37.084Z,15.23
2022-11-26T17:29:04.271Z,14.90
2022-11-26T17:31:31.263Z,14.90
2022-11-26T17:33:58.463Z,14.85
2022-11-26T17:36:25.897Z,13.52
2022-11-26T17:38:53.115Z,14.25
2022-11-26T17:41:20.649Z,14.68
2022-11-26T17:43:47.867Z,15.18
2022-11-26T17:46:20.418Z,14.52
2022-11-26T17:48:49.572Z,14.48
2022-11-26T17:51:17.399Z,14.45
2022-11-26T17:53:45.116Z,14.18
2022-11-26T17:56:21.156Z,13.98
2022-11-26T17:58:49.920Z,14.30
2022-11-26T18:01:17.541Z,13.50
2022-11-26T18:03:45.413Z,15.77
2022-11-26T18:06:17.565Z,13.63
2022-11-26T18:08:45.626Z,14.32
2022-11-26T18:11:15.222Z,14.60
2022-11-26T18:13:43.061Z,13.25
2022-11-26T18:16:09.907Z,14.57
2022-11-26T18:18:37.425Z,15.90
2022-11-26T18:21:05.037Z,15.68
2022-11-26T18:23:32.626Z,14.80
2022-11-26T18:25:59.669Z,15.18
2022-11-26T18:28:27.139Z,15.18
2022-11-26T18:30:58.396Z,16.55
2022-11-26T18:33:26.136Z,15.65
2022-11-26T18:35:53.317Z,14.07
2022-11-26T18:38:20.813Z,15.35
2022-11-26T18:40:57.801Z,15.13
2022-11-26T18:43:26.201Z,15.82
2022-11-26T18:45:53.319Z,16.42
2022-11-26T18:48:22.576Z,14.15
2022-11-26T18:50:59.463Z,14.25
2022-11-26T18:53:28.328Z,14.27
2022-11-26T18:55:56.566Z,15.55
2022-11-26T18:58:25.106Z,15.65
2022-11-26T19:00:58.671Z,14.77
2022-11-26T19:03:27.472Z,15.32
2022-11-26T19:05:54.861Z,14.23
2022-11-26T19:08:22.275Z,16.08
2022-11-26T19:10:49.678Z,15.52
2022-11-26T19:13:16.828Z,15.10
2022-11-26T19:15:45.867Z,14.23
2022-11-26T19:18:14.041Z,15.75
2022-11-26T19:20:49.624Z,15.82
2022-11-26T19:23:18.371Z,14.75
2022-11-26T19:25:45.756Z,16.08
2022-11-26T19:28:13.084Z,15.48
2022-11-26T19:30:40.047Z,14.90
2022-11-26T19:33:07.930Z,17.33
2022-11-26T19:35:38.894Z,17.40
2022-11-26T19:38:06.140Z,17.02
2022-11-26T19:40:33.207Z,17.23
2022-11-26T19:43:00.449Z,19.08
2022-11-26T19:45:27.375Z,20.23
2022-11-26T19:47:54.909Z,18.20
2022-11-26T19:50:22.056Z,18.55
2022-11-26T19:52:49.237Z,14.75
2022-11-26T19:55:16.148Z,17.90
2022-11-26T19:57:43.602Z,17.80
2022-11-26T20:00:11.574Z,18.00
2022-11-26T20:02:38.907Z,18.67
2022-11-26T20:05:06.203Z,18.83
2022-11-26T20:07:33.713Z,17.38
2022-11-26T20:10:00.751Z,16.95
2022-11-26T20:12:28.473Z,19.00
2022-11-26T20:14:55.672Z,18.58
2022-11-26T20:17:23.027Z,19.40
2022-11-26T20:19:50.139Z,18.17
2022-11-26T20:22:18.288Z,17.63
2022-11-26T20:24:45.372Z,17.08
2022-11-26T20:27:12.963Z,19.08
2022-11-26T20:29:40.325Z,19.17
2022-11-26T20:32:08.514Z,18.23
2022-11-26T20:34:35.883Z,21.50
2022-11-26T20:37:03.858Z,20.55
2022-11-26T20:39:31.451Z,21.85
2022-11-26T20:41:59.172Z,20.02
2022-11-26T20:44:28.519Z,20.85
2022-11-26T20:46:57.076Z,20.83
2022-11-26T20:49:23.993Z,20.85
2022-11-26T20:51:51.486Z,22.20
2022-11-26T20:54:18.426Z,22.05
2022-11-26T20:56:45.956Z,22.17
2022-11-26T20:59:12.833Z,20.80
2022-11-26T21:01:40.177Z,23.98
2022-11-26T21:04:07.624Z,23.80
2022-11-26T21:06:35.678Z,24.42
2022-11-26T21:09:05.546Z,23.30
2022-11-26T21:11:33.164Z,24.00
2022-11-26T21:14:01.760Z,22.63
2022-11-26T21:16:30.597Z,22.48
2022-11-26T21:18:58.053Z,21.58
2022-11-26T21:21:27.405Z,21.25
2022-11-26T21:23:55.376Z,21.42
2022-11-26T21:26:25.517Z,24.48
2022-11-26T21:28:54.910Z,24.15
2022-11-26T21:31:23.049Z,26.30
2022-11-26T21:34:03.938Z,22.02
2022-11-26T21:36:33.948Z,22.77
2022-11-26T21:39:01.414Z,25.08
2022-11-26T21:41:29.030Z,23.77
2022-11-26T21:43:56.588Z,24.08
2022-11-26T21:46:27.590Z,24.75
2022-11-26T21:48:56.107Z,23.23
2022-11-26T21:51:28.844Z,24.90
2022-11-26T21:53:57.548Z,24.63
2022-11-26T21:56:30.200Z,21.90
2022-11-26T21:58:59.202Z,21.20
2022-11-26T22:01:29.475Z,22.48
2022-11-26T22:04:00.162Z,21.45
2022-11-26T22:06:28.052Z,20.83
2022-11-26T22:08:55.616Z,21.10
2022-11-26T22:11:29.063Z,22.83
2022-11-26T22:13:56.278Z,22.88
2022-11-26T22:16:26.091Z,23.25
2022-11-26T22:18:54.416Z,21.67
2022-11-26T22:21:27.913Z,21.67
2022-11-26T22:23:55.915Z,21.27
2022-11-26T22:26:23.788Z,23.50
2022-11-26T22:28:52.456Z,22.30
2022-11-26T22:31:29.559Z,20.70
2022-11-26T22:34:11.435Z,23.05
2022-11-26T22:36:39.946Z,21.35
2022-11-26T22:39:11.493Z,23.27
2022-11-26T22:41:41.180Z,21.85
2022-11-26T22:44:09.247Z,21.98
2022-11-26T22:46:38.358Z,22.85
2022-11-26T22:49:06.782Z,22.50
2022-11-26T22:51:35.406Z,23.65
2022-11-26T22:54:05.125Z,22.38
2022-11-26T22:56:37.296Z,22.88
2022-11-26T22:59:05.501Z,22.58
2022-11-26T23:01:35.282Z,25.33
2022-11-26T23:04:05.064Z,21.48
2022-11-26T23:06:34.509Z,21.13
2022-11-26T23:09:03.374Z,22.73
2022-11-26T23:11:34.027Z,23.05
2022-11-26T23:14:07.341Z,22.98
2022-11-26T23:16:37.482Z,20.05
2022-11-26T23:19:05.778Z,21.77
2022-11-26T23:21:36.263Z,23.13
2022-11-26T23:24:04.201Z,21.15
2022-11-26T23:26:33.911Z,21.38
2022-11-26T23:29:02.496Z,20.10
2022-11-26T23:31:33.576Z,21.27
2022-11-26T23:34:01.293Z,21.33
2022-11-26T23:36:29.787Z,20.88
2022-11-26T23:38:58.651Z,20.40
2022-11-26T23:41:28.157Z,20.15
2022-11-26T23:43:55.223Z,20.08
2022-11-26T23:46:24.137Z,20.33
2022-11-26T23:48:51.869Z,19.85
2022-11-26T23:51:27.643Z,23.25
2022-11-26T23:53:54.776Z,20.10
2022-11-26T23:56:26.588Z,20.65
2022-11-26T23:58:58.937Z,21.17
